createdAt,value
2022-12-23T07:00:15.368Z,93.80
2022-12-23T07:02:43.599Z,93.81
2022-12-23T07:05:11.627Z,93.96
2022-12-23T07:07:39.421Z,93.69
2022-12-23T07:10:08.015Z,93.65
2022-12-23T07:12:35.760Z,93.58
2022-12-23T07:15:03.849Z,93.51
2022-12-23T07:17:32.431Z,93.56
2022-12-23T07:20:00.466Z,93.64
2022-12-23T07:22:28.445Z,93.48
2022-12-23T07:24:56.181Z,93.72
2022-12-23T07:27:23.938Z,93.76
2022-12-23T07:29:52.050Z,93.23
2022-12-23T07:32:20.205Z,93.73
2022-12-23T07:34:48.143Z,93.55
2022-12-23T07:37:16.014Z,93.67
2022-12-23T07:39:43.894Z,93.29
2022-12-23T07:44:59.681Z,93.68
2022-12-23T07:47:27.559Z,93.47
2022-12-23T07:49:55.372Z,93.33
2022-12-23T07:52:23.757Z,93.53
2022-12-23T07:54:51.497Z,93.32
2022-12-23T07:57:19.237Z,93.42
2022-12-23T07:59:47.029Z,93.28
2022-12-23T08:02:14.880Z,93.21
2022-12-23T08:04:46.361Z,93.57
2022-12-23T08:07:14.926Z,93.68
2022-12-23T08:09:42.737Z,93.29
2022-12-23T08:12:10.652Z,93.45
2022-12-23T08:14:38.609Z,93.47
2022-12-23T08:17:07.032Z,93.61
2022-12-23T08:19:34.835Z,93.27
2022-12-23T08:22:02.858Z,93.53
2022-12-23T08:24:31.219Z,93.38
2022-12-23T08:26:59.135Z,93.19
2022-12-23T08:29:30.077Z,93.34
2022-12-23T08:32:02.061Z,93.02
2022-12-23T08:34:29.868Z,93.14
2022-12-23T08:36:57.769Z,93.31
2022-12-23T08:39:25.982Z,93.11
2022-12-23T08:41:54.019Z,93.14
2022-12-23T08:44:22.062Z,93.43
2022-12-23T08:46:50.104Z,93.17
2022-12-23T08:49:18.142Z,93.36
2022-12-23T08:51:47.118Z,93.02
2022-12-23T08:54:16.144Z,93.10
2022-12-23T08:56:44.338Z,93.23
2022-12-23T08:59:19.024Z,93.47
2022-12-23T09:01:48.373Z,93.07
2022-12-23T09:04:17.153Z,93.36
2022-12-23T09:06:45.778Z,93.31
2022-12-23T09:09:15.995Z,92.92
2022-12-23T09:11:44.702Z,93.03
2022-12-23T09:14:12.965Z,93.21
2022-12-23T09:16:41.051Z,93.34
2022-12-23T09:19:09.225Z,93.16
2022-12-23T09:21:40.523Z,93.10
2022-12-23T09:24:08.692Z,92.84
2022-12-23T09:26:36.904Z,92.66
2022-12-23T09:29:05.241Z,93.06
2022-12-23T09:31:37.271Z,92.79
2022-12-23T09:34:06.585Z,92.93
2022-12-23T09:36:34.958Z,92.92
2022-12-23T09:39:04.142Z,92.73
2022-12-23T09:42:01.884Z,92.75
2022-12-23T09:44:58.892Z,93.00
2022-12-23T09:47:32.242Z,92.97
2022-12-23T09:50:17.411Z,93.44
2022-12-23T09:53:00.299Z,92.98
2022-12-23T09:55:52.281Z,92.94
2022-12-23T09:58:34.073Z,93.08
2022-12-23T10:01:45.134Z,92.95
2022-12-23T10:04:22.855Z,92.80
2022-12-23T10:07:12.375Z,92.73
2022-12-23T10:09:44.297Z,92.82
2022-12-23T10:12:39.409Z,92.82
2022-12-23T10:15:32.880Z,92.95
2022-12-23T10:18:07.008Z,92.82
2022-12-23T10:20:48.095Z,92.73
2022-12-23T10:23:37.516Z,93.01
2022-12-23T10:26:24.386Z,92.83
2022-12-23T10:29:20.078Z,92.85
2022-12-23T10:32:19.035Z,92.74
2022-12-23T10:35:22.408Z,92.79
2022-12-23T10:38:08.073Z,92.72
2022-12-23T10:41:08.856Z,92.75
2022-12-23T10:43:46.172Z,92.53
2022-12-23T10:46:35.363Z,92.64
2022-12-23T10:49:08.276Z,92.61
2022-12-23T10:51:56.683Z,92.51
2022-12-23T10:54:30.991Z,92.53
2022-12-23T10:56:59.703Z,92.58
2022-12-23T10:59:31.239Z,92.43
2022-12-23T11:02:06.731Z,92.47
2022-12-23T11:04:37.100Z,92.25
2022-12-23T11:07:42.087Z,92.53
2022-12-23T11:10:18.031Z,92.42
2022-12-23T11:12:49.678Z,92.51
2022-12-23T11:15:33.150Z,92.44
2022-12-23T11:18:21.784Z,92.43
2022-12-23T11:21:07.632Z,92.28
2022-12-23T11:23:36.786Z,92.60
2022-12-23T11:26:11.556Z,92.32
2022-12-23T11:28:51.311Z,92.55
2022-12-23T11:31:28.788Z,92.28
2022-12-23T11:34:00.971Z,92.19
2022-12-23T11:36:30.381Z,92.30
2022-12-23T11:39:20.682Z,92.20
2022-12-23T11:41:52.765Z,92.22
2022-12-23T11:44:23.546Z,92.21
2022-12-23T11:46:52.217Z,92.15
2022-12-23T11:49:25.098Z,92.10
2022-12-23T11:52:02.095Z,92.19
2022-12-23T11:54:30.146Z,92.14
2022-12-23T11:57:00.871Z,92.18
2022-12-23T11:59:44.933Z,92.31
2022-12-23T12:02:27.753Z,92.19
2022-12-23T12:05:00.852Z,92.28
2022-12-23T12:07:30.818Z,92.28
2022-12-23T12:10:01.443Z,92.20
2022-12-23T12:12:30.387Z,92.13
2022-12-23T12:15:00.072Z,92.26
2022-12-23T12:17:37.485Z,92.22
2022-12-23T12:20:21.005Z,92.17
2022-12-23T12:22:55.602Z,92.16
2022-12-23T12:25:55.140Z,92.20
2022-12-23T12:28:28.394Z,92.09
2022-12-23T12:31:06.152Z,92.35
2022-12-23T12:33:39.621Z,92.31
2022-12-23T12:36:16.056Z,92.32
2022-12-23T12:38:48.082Z,92.24
2022-12-23T12:41:39.898Z,92.13
2022-12-23T12:44:23.954Z,92.09
2022-12-23T12:47:16.008Z,92.09
2022-12-23T12:49:59.163Z,92.13
2022-12-23T12:52:28.419Z,92.06
2022-12-23T12:55:13.984Z,91.99
2022-12-23T12:57:42.243Z,92.20
2022-12-23T13:00:19.787Z,92.40
2022-12-23T13:02:47.871Z,92.22
2022-12-23T13:05:32.885Z,92.21
2022-12-23T13:08:29.099Z,92.31
2022-12-23T13:11:44.086Z,92.55
2022-12-23T13:14:27.705Z,92.48
2022-12-23T13:17:13.782Z,92.03
2022-12-23T13:20:16.315Z,92.48
2022-12-23T13:22:49.376Z,92.43
2022-12-23T13:25:34.306Z,92.73
2022-12-23T13:28:23.727Z,92.70
2022-12-23T13:31:01.933Z,92.96
2022-12-23T13:34:08.859Z,92.98
2022-12-23T13:37:08.120Z,93.26
2022-12-23T13:39:50.742Z,92.95
2022-12-23T13:42:29.307Z,92.74
2022-12-23T13:44:59.357Z,93.10
2022-12-23T13:47:36.322Z,93.05
2022-12-23T13:50:24.048Z,93.20
2022-12-23T13:53:13.356Z,93.36
2022-12-23T13:56:20.908Z,93.39
2022-12-23T13:58:50.970Z,93.16
2022-12-23T14:01:34.306Z,93.59
2022-12-23T14:04:37.652Z,93.58
2022-12-23T14:07:20.884Z,93.58
2022-12-23T14:09:58.366Z,93.55
2022-12-23T14:12:35.983Z,93.53
2022-12-23T14:15:19.872Z,93.71
2022-12-23T14:17:54.064Z,93.65
2022-12-23T14:20:50.508Z,93.86
2022-12-23T14:23:52.164Z,93.75
2022-12-23T14:26:49.238Z,93.78
2022-12-23T14:30:05.211Z,93.84
2022-12-23T14:32:50.464Z,94.09
2022-12-23T14:35:44.893Z,94.03
2022-12-23T14:38:15.937Z,94.01
2022-12-23T14:40:44.102Z,94.12
2022-12-23T14:43:31.398Z,94.19
2022-12-23T14:46:05.246Z,93.99
2022-12-23T14:48:37.121Z,94.35
2022-12-23T14:51:11.371Z,94.39
2022-12-23T14:53:52.271Z,94.23
2022-12-23T14:56:20.234Z,94.28
2022-12-23T14:59:05.399Z,94.39
2022-12-23T15:01:43.154Z,94.59
2022-12-23T15:04:14.086Z,94.61
2022-12-23T15:06:45.442Z,94.42
2022-12-23T15:09:39.788Z,94.63
2022-12-23T15:12:42.477Z,94.57
2022-12-23T15:15:15.683Z,94.93
2022-12-23T15:17:43.851Z,94.97
2022-12-23T15:20:21.222Z,94.58
2022-12-23T15:22:49.785Z,94.76
2022-12-23T15:25:26.975Z,95.41
2022-12-23T15:28:01.555Z,95.01
2022-12-23T15:30:35.783Z,95.01
2022-12-23T15:33:27.989Z,95.11
2022-12-23T15:35:57.691Z,95.13
2022-12-23T15:38:31.256Z,94.74
2022-12-23T15:41:02.503Z,95.02
2022-12-23T15:43:30.929Z,95.03
2022-12-23T15:46:09.628Z,95.60
2022-12-23T15:48:38.465Z,95.23
2022-12-23T15:51:12.968Z,95.48
2022-12-23T15:53:44.355Z,95.44
2022-12-23T15:56:26.311Z,95.29
2022-12-23T15:58:56.646Z,95.40
2022-12-23T16:01:26.592Z,95.32
2022-12-23T16:03:59.933Z,95.27
2022-12-23T16:06:33.150Z,95.44
2022-12-23T16:09:04.734Z,95.62
2022-12-23T16:11:49.050Z,95.40
2022-12-23T16:14:38.934Z,95.43
2022-12-23T16:17:10.491Z,95.57
2022-12-23T16:19:53.219Z,95.75
2022-12-23T16:22:21.532Z,95.59
2022-12-23T16:25:01.349Z,95.59
2022-12-23T16:27:41.185Z,95.47
2022-12-23T16:30:33.103Z,95.56
2022-12-23T16:33:07.423Z,95.20
2022-12-23T16:35:44.048Z,95.47
2022-12-23T16:38:19.627Z,95.63
2022-12-23T16:41:00.098Z,95.65
2022-12-23T16:43:28.173Z,95.45
2022-12-23T16:45:57.677Z,95.41
2022-12-23T16:48:36.278Z,95.33
2022-12-23T16:51:12.759Z,95.64
2022-12-23T16:53:40.764Z,95.51
2022-12-23T16:56:16.177Z,95.44
2022-12-23T16:58:44.751Z,95.58
2022-12-23T17:01:38.721Z,95.65
2022-12-23T17:04:08.348Z,95.62
2022-12-23T17:06:37.465Z,95.61
2022-12-23T17:09:08.410Z,95.83
2022-12-23T17:11:41.621Z,95.70
2022-12-23T17:14:23.191Z,95.66
2022-12-23T17:16:51.963Z,95.73
2022-12-23T17:19:27.779Z,95.53
2022-12-23T17:22:01.707Z,95.61
2022-12-23T17:24:30.164Z,95.66
2022-12-23T17:26:59.234Z,95.47
2022-12-23T17:29:28.297Z,95.68
2022-12-23T17:31:56.304Z,95.47
2022-12-23T17:34:24.663Z,95.50
2022-12-23T17:36:53.291Z,95.48
2022-12-23T17:39:22.292Z,95.54
2022-12-23T17:41:51.147Z,95.79
2022-12-23T17:44:19.346Z,95.58
2022-12-23T17:46:48.045Z,95.61
2022-12-23T17:49:16.021Z,95.95
2022-12-23T17:51:44.167Z,95.88
2022-12-23T17:54:24.586Z,95.61
2022-12-23T17:56:53.148Z,95.84
2022-12-23T17:59:21.916Z,95.73
2022-12-23T18:01:50.452Z,95.94
2022-12-23T18:04:18.600Z,95.95
2022-12-23T18:06:46.698Z,95.90
2022-12-23T18:09:14.979Z,95.82
2022-12-23T18:11:46.763Z,95.80
2022-12-23T18:14:18.615Z,95.88
2022-12-23T18:16:46.879Z,95.82
2022-12-23T18:19:20.566Z,95.60
2022-12-23T18:21:49.877Z,95.47
2022-12-23T18:24:18.939Z,95.71
2022-12-23T18:26:47.840Z,95.47
2022-12-23T18:29:15.829Z,95.43
2022-12-23T18:31:51.586Z,95.18
2022-12-23T18:34:20.326Z,95.26
2022-12-23T18:36:48.856Z,95.14
2022-12-23T18:39:17.047Z,95.16
2022-12-23T18:41:45.006Z,95.13
2022-12-23T18:44:20.793Z,95.10
2022-12-23T18:46:50.239Z,94.82
2022-12-23T18:49:18.346Z,94.97
2022-12-23T18:51:46.857Z,94.85
2022-12-23T18:54:16.216Z,95.06
2022-12-23T18:56:44.566Z,95.05
2022-12-23T18:59:16.840Z,95.11
2022-12-23T19:01:44.892Z,94.78
2022-12-23T19:04:13.830Z,94.75
2022-12-23T19:06:41.760Z,94.89
2022-12-23T19:09:15.933Z,94.74
2022-12-23T19:11:45.678Z,94.84
2022-12-23T19:14:13.758Z,94.87
2022-12-23T19:16:46.041Z,94.72
2022-12-23T19:19:17.113Z,94.91
2022-12-23T19:21:44.896Z,94.82
2022-12-23T19:24:12.708Z,94.86
2022-12-23T19:26:40.529Z,94.72
2022-12-23T19:29:09.884Z,94.86
2022-12-23T19:31:37.854Z,94.61
2022-12-23T19:34:09.746Z,94.61
2022-12-23T19:36:42.984Z,94.74
2022-12-23T19:39:16.995Z,94.86
2022-12-23T19:41:45.853Z,95.00
2022-12-23T19:44:14.943Z,94.96
2022-12-23T19:46:43.522Z,94.77
2022-12-23T19:49:19.314Z,94.97
2022-12-23T19:51:48.719Z,94.81
2022-12-23T19:54:18.085Z,94.82
2022-12-23T19:56:46.360Z,94.98
2022-12-23T19:59:14.438Z,94.89
2022-12-23T20:01:42.683Z,94.66
2022-12-23T20:04:11.306Z,94.58
2022-12-23T20:06:41.526Z,94.96
2022-12-23T20:09:12.128Z,94.48
2022-12-23T20:11:43.031Z,94.85
2022-12-23T20:14:12.184Z,94.73
2022-12-23T20:16:40.536Z,94.62
2022-12-23T20:19:08.373Z,94.86
2022-12-23T20:21:37.628Z,94.69
2022-12-23T20:24:06.735Z,94.48
2022-12-23T20:26:34.666Z,94.69
2022-12-23T20:29:02.584Z,94.51
2022-12-23T20:31:32.800Z,94.70
2022-12-23T20:34:01.785Z,94.94
2022-12-23T20:36:32.861Z,94.85
2022-12-23T20:39:02.125Z,94.81
2022-12-23T20:41:31.374Z,94.80
2022-12-23T20:46:47.872Z,94.64
2022-12-23T20:49:15.649Z,94.33
2022-12-23T20:51:43.475Z,94.56
2022-12-23T20:54:11.415Z,94.52
2022-12-23T20:56:39.199Z,94.34
2022-12-23T20:59:07.026Z,94.59
2022-12-23T21:01:38.341Z,94.38
2022-12-23T21:04:13.268Z,94.30
2022-12-23T21:06:41.516Z,94.74
2022-12-23T21:09:12.412Z,94.74
2022-12-23T21:11:43.894Z,94.37
2022-12-23T21:14:11.944Z,94.26
2022-12-23T21:16:39.924Z,94.66
2022-12-23T21:19:13.127Z,94.60
2022-12-23T21:21:40.972Z,94.41
2022-12-23T21:24:10.487Z,94.47
2022-12-23T21:26:38.647Z,94.68
2022-12-23T21:29:08.272Z,94.31
2022-12-23T21:31:39.316Z,94.35
2022-12-23T21:34:08.182Z,94.54
2022-12-23T21:36:38.098Z,94.27
2022-12-23T21:39:06.992Z,94.46
2022-12-23T21:41:37.675Z,94.41
2022-12-23T21:44:05.692Z,94.17
2022-12-23T21:46:34.203Z,94.57
2022-12-23T21:49:02.998Z,94.55
2022-12-23T21:51:39.445Z,94.46
2022-12-23T21:54:12.756Z,94.42
2022-12-23T21:56:41.610Z,94.34
2022-12-23T21:59:14.048Z,94.12
